createdAt,value
2022-10-12T00:01:00.102Z,102248.41
2022-10-12T00:03:27.349Z,102247.28
2022-10-12T00:06:16.912Z,102253.91
2022-10-12T00:09:09.219Z,102254.00
2022-10-12T00:11:36.176Z,102243.69
2022-10-12T00:14:03.056Z,102255.19
2022-10-12T00:16:31.563Z,102258.22
2022-10-12T00:18:59.428Z,102248.75
2022-10-12T00:21:27.961Z,102251.78
2022-10-12T00:24:01.047Z,102265.91
2022-10-12T00:26:29.138Z,102249.81
2022-10-12T00:29:00.885Z,102257.00
2022-10-12T00:31:29.940Z,102253.34
2022-10-12T00:34:01.735Z,102257.69
2022-10-12T00:36:33.952Z,102249.41
2022-10-12T00:39:01.786Z,102253.06
2022-10-12T00:41:33.473Z,102262.06
2022-10-12T00:44:00.993Z,102261.59
2022-10-12T00:46:42.557Z,102258.09
2022-10-12T00:49:15.982Z,102255.16
2022-10-12T00:51:48.978Z,102260.66
2022-10-12T00:54:26.464Z,102254.69
2022-10-12T00:56:55.345Z,102258.53
2022-10-12T00:59:30.571Z,102263.84
2022-10-12T01:01:57.675Z,102259.72
2022-10-12T01:04:25.508Z,102278.34
2022-10-12T01:06:55.828Z,102275.84
2022-10-12T01:09:23.276Z,102272.88
2022-10-12T01:11:50.467Z,102270.56
2022-10-12T01:14:17.598Z,102273.22
2022-10-12T01:17:17.214Z,102269.44
2022-10-12T01:20:25.965Z,102274.09
2022-10-12T01:23:19.689Z,102270.16
2022-10-12T01:26:10.673Z,102273.16
2022-10-12T01:29:30.682Z,102273.50
2022-10-12T01:32:06.338Z,102269.72
2022-10-12T01:35:02.384Z,102276.88
2022-10-12T01:37:54.450Z,102282.38
2022-10-12T01:40:33.145Z,102274.91
2022-10-12T01:43:00.407Z,102272.59
2022-10-12T01:45:27.436Z,102269.94
2022-10-12T01:47:55.469Z,102277.94
2022-10-12T01:50:32.163Z,102274.63
2022-10-12T01:53:16.671Z,102281.59
2022-10-12T01:56:09.324Z,102283.59
2022-10-12T01:59:19.568Z,102278.47
2022-10-12T02:02:14.459Z,102279.97
2022-10-12T02:04:49.295Z,102272.34
2022-10-12T02:07:41.939Z,102270.84
2022-10-12T02:10:18.412Z,102284.47
2022-10-12T02:12:48.085Z,102268.69
2022-10-12T02:15:17.575Z,102275.69
2022-10-12T02:17:48.301Z,102268.03
2022-10-12T02:20:18.630Z,102252.97
2022-10-12T02:22:49.514Z,102267.56
2022-10-12T02:25:22.949Z,102264.91
2022-10-12T02:28:04.374Z,102256.78
2022-10-12T02:30:45.531Z,102247.16
2022-10-12T02:33:33.345Z,102252.47
2022-10-12T02:36:13.998Z,102259.97
2022-10-12T02:38:55.668Z,102267.94
2022-10-12T02:41:30.640Z,102258.50
2022-10-12T02:44:01.996Z,102259.50
2022-10-12T02:46:30.127Z,102242.75
2022-10-12T02:48:59.409Z,102243.75
2022-10-12T02:51:29.396Z,102246.75
2022-10-12T02:53:57.187Z,102247.41
2022-10-12T02:56:24.626Z,102254.38
2022-10-12T02:58:51.685Z,102253.56
2022-10-12T03:01:18.799Z,102251.91
2022-10-12T03:03:45.979Z,102252.06
2022-10-12T03:06:13.370Z,102252.25
2022-10-12T03:08:40.267Z,102255.06
2022-10-12T03:11:12.443Z,102250.28
2022-10-12T03:13:39.339Z,102247.13
2022-10-12T03:16:10.198Z,102255.59
2022-10-12T03:18:38.238Z,102248.47
2022-10-12T03:21:06.378Z,102248.13
2022-10-12T03:23:33.428Z,102228.44
2022-10-12T03:26:00.292Z,102238.19
2022-10-12T03:28:27.549Z,102248.00
2022-10-12T03:30:54.633Z,102254.97
2022-10-12T03:33:25.181Z,102253.47
2022-10-12T03:35:52.061Z,102246.19
2022-10-12T03:38:20.013Z,102247.03
2022-10-12T03:40:47.411Z,102234.06
2022-10-12T03:43:14.533Z,102243.38
2022-10-12T03:45:41.609Z,102240.22
2022-10-12T03:48:08.848Z,102240.72
2022-10-12T03:50:36.443Z,102244.72
2022-10-12T03:53:05.956Z,102232.94
2022-10-12T03:55:33.579Z,102240.56
2022-10-12T03:58:00.609Z,102248.88
2022-10-12T04:00:28.414Z,102244.72
2022-10-12T04:02:56.247Z,102235.28
2022-10-12T04:05:23.810Z,102245.56
2022-10-12T04:07:51.322Z,102242.59
2022-10-12T04:10:18.192Z,102251.22
2022-10-12T04:12:45.956Z,102245.75
2022-10-12T04:15:13.752Z,102252.38
2022-10-12T04:17:41.245Z,102255.38
2022-10-12T04:20:11.427Z,102259.84
2022-10-12T04:22:39.196Z,102254.84
2022-10-12T04:25:06.836Z,102262.16
2022-10-12T04:27:34.149Z,102265.81
2022-10-12T04:30:01.209Z,102268.81
2022-10-12T04:32:28.036Z,102258.53
2022-10-12T04:34:54.967Z,102263.66
2022-10-12T04:37:21.812Z,102254.38
2022-10-12T04:39:48.778Z,102257.03
2022-10-12T04:42:15.667Z,102256.88
2022-10-12T04:44:42.877Z,102258.53
2022-10-12T04:47:09.753Z,102266.16
2022-10-12T04:49:36.889Z,102268.16
2022-10-12T04:52:03.803Z,102268.16
2022-10-12T04:54:32.943Z,102269.16
2022-10-12T04:56:59.780Z,102266.84
2022-10-12T04:59:26.744Z,102275.63
2022-10-12T05:01:54.583Z,102263.84
2022-10-12T05:04:21.739Z,102264.69
2022-10-12T05:06:48.943Z,102275.31
2022-10-12T05:09:17.258Z,102263.84
2022-10-12T05:11:44.586Z,102266.19
2022-10-12T05:14:11.551Z,102267.84
2022-10-12T05:16:38.560Z,102265.34
2022-10-12T05:19:05.856Z,102270.84
2022-10-12T05:21:33.907Z,102277.81
2022-10-12T05:24:00.729Z,102278.78
2022-10-12T05:26:28.796Z,102273.50
2022-10-12T05:28:55.731Z,102269.84
2022-10-12T05:31:22.540Z,102277.13
2022-10-12T05:33:50.192Z,102279.47
2022-10-12T05:36:17.042Z,102292.91
2022-10-12T05:38:43.975Z,102276.47
2022-10-12T05:41:10.915Z,102277.31
2022-10-12T05:43:37.982Z,102276.97
2022-10-12T05:46:11.021Z,102280.63
2022-10-12T05:48:40.739Z,102284.94
2022-10-12T05:51:07.721Z,102279.63
2022-10-12T05:53:34.516Z,102291.72
2022-10-12T05:56:02.126Z,102281.78
2022-10-12T05:58:31.231Z,102279.97
2022-10-12T06:01:12.904Z,102282.94
2022-10-12T06:03:40.955Z,102277.63
2022-10-12T06:06:08.176Z,102279.78
2022-10-12T06:08:36.288Z,102273.31
2022-10-12T06:11:03.574Z,102280.75
2022-10-12T06:13:30.988Z,102284.56
2022-10-12T06:15:58.059Z,102286.56
2022-10-12T06:18:25.281Z,102285.41
2022-10-12T06:21:14.866Z,102290.88
2022-10-12T06:23:41.588Z,102293.53
2022-10-12T06:26:08.403Z,102303.97
2022-10-12T06:28:35.636Z,102289.47
2022-10-12T06:31:02.656Z,102286.63
2022-10-12T06:36:21.307Z,102294.81
2022-10-12T06:38:48.177Z,102287.59
2022-10-12T06:41:16.155Z,102296.97
2022-10-12T06:43:43.140Z,102296.88
2022-10-12T06:46:10.059Z,102295.78
2022-10-12T06:48:40.242Z,102293.94
2022-10-12T06:51:07.670Z,102293.13
2022-10-12T06:53:35.039Z,102291.22
2022-10-12T06:56:12.444Z,102289.59
2022-10-12T06:58:40.101Z,102302.13
2022-10-12T07:01:08.907Z,102290.59
2022-10-12T07:03:36.301Z,102286.88
2022-10-12T07:06:28.105Z,102286.84
2022-10-12T07:08:55.538Z,102288.59
2022-10-12T07:11:22.931Z,102294.22
2022-10-12T07:13:50.129Z,102289.28
2022-10-12T07:16:16.923Z,102289.91
2022-10-12T07:18:43.921Z,102280.78
2022-10-12T07:21:10.928Z,102288.06
2022-10-12T07:23:41.320Z,102285.84
2022-10-12T07:26:12.074Z,102287.50
2022-10-12T07:28:39.125Z,102288.66
2022-10-12T07:31:08.120Z,102275.72
2022-10-12T07:33:38.623Z,102283.81
2022-10-12T07:36:15.851Z,102277.38
2022-10-12T07:38:45.310Z,102278.94
2022-10-12T07:41:12.904Z,102269.69
2022-10-12T07:43:40.212Z,102275.81
2022-10-12T07:46:07.880Z,102274.06
2022-10-12T07:48:38.235Z,102266.81
2022-10-12T07:51:30.229Z,102266.53
2022-10-12T07:53:57.484Z,102264.34
2022-10-12T07:56:24.261Z,102264.03
2022-10-12T07:58:54.047Z,102264.63
2022-10-12T08:01:25.110Z,102255.16
2022-10-12T08:03:57.464Z,102263.59
2022-10-12T08:06:30.973Z,102246.75
2022-10-12T08:08:59.861Z,102247.03
2022-10-12T08:11:27.527Z,102249.72
2022-10-12T08:13:55.017Z,102245.81
2022-10-12T08:16:22.609Z,102233.16
2022-10-12T08:18:49.615Z,102239.44
2022-10-12T08:21:18.092Z,102233.94
2022-10-12T08:23:46.243Z,102240.56
2022-10-12T08:26:15.788Z,102236.81
2022-10-12T08:28:43.145Z,102224.69
2022-10-12T08:31:16.799Z,102223.41
2022-10-12T08:33:44.055Z,102220.75
2022-10-12T08:36:12.299Z,102226.16
2022-10-12T08:38:39.606Z,102225.78
2022-10-12T08:41:59.145Z,102221.81
2022-10-12T08:44:37.973Z,102217.63
2022-10-12T08:47:37.921Z,102207.94
2022-10-12T08:50:14.894Z,102217.00
2022-10-12T08:52:51.304Z,102211.56
2022-10-12T08:55:24.325Z,102210.38
2022-10-12T08:57:51.201Z,102197.28
2022-10-12T09:00:18.735Z,102204.44
2022-10-12T09:03:10.458Z,102200.22
2022-10-12T09:05:41.688Z,102195.50
2022-10-12T09:08:28.499Z,102189.50
2022-10-12T09:11:07.733Z,102190.22
2022-10-12T09:13:49.216Z,102192.19
2022-10-12T09:16:29.637Z,102181.97
2022-10-12T09:19:03.724Z,102180.94
2022-10-12T09:21:32.448Z,102177.22
2022-10-12T09:24:00.757Z,102171.09
2022-10-12T09:26:36.930Z,102172.91
2022-10-12T09:29:19.426Z,102176.78
2022-10-12T09:32:20.328Z,102171.56
2022-10-12T09:34:49.457Z,102166.78
2022-10-12T09:37:23.748Z,102163.09
2022-10-12T09:39:51.215Z,102170.63
2022-10-12T09:42:18.479Z,102158.47
2022-10-12T09:44:49.524Z,102150.03
2022-10-12T09:47:26.817Z,102152.38
2022-10-12T09:50:04.077Z,102150.63
2022-10-12T09:52:42.570Z,102141.31
2022-10-12T09:55:15.953Z,102149.44
2022-10-12T09:57:53.255Z,102147.41
2022-10-12T10:00:24.742Z,102144.72
2022-10-12T10:02:52.622Z,102142.91
2022-10-12T10:05:33.119Z,102144.13
2022-10-12T10:08:23.283Z,102133.34
2022-10-12T10:10:55.542Z,102138.31
2022-10-12T10:13:27.861Z,102125.41
2022-10-12T10:16:09.417Z,102131.41
2022-10-12T10:18:38.661Z,102129.50
2022-10-12T10:21:09.601Z,102129.38
2022-10-12T10:23:59.257Z,102127.81
2022-10-12T10:26:30.050Z,102122.13
2022-10-12T10:29:27.815Z,102123.78
2022-10-12T10:32:14.441Z,102118.50
2022-10-12T10:34:42.207Z,102117.16
2022-10-12T10:37:24.530Z,102118.66
2022-10-12T10:39:58.363Z,102111.97
2022-10-12T10:42:33.495Z,102115.56
2022-10-12T10:45:07.219Z,102125.38
2022-10-12T10:47:46.420Z,102109.28
2022-10-12T10:50:38.811Z,102114.03
2022-10-12T10:53:18.550Z,102110.69
2022-10-12T10:56:27.488Z,102111.34
2022-10-12T10:58:57.239Z,102104.81
2022-10-12T11:01:36.332Z,102102.63
2022-10-12T11:04:09.380Z,102100.19
2022-10-12T11:06:46.072Z,102103.66
2022-10-12T11:09:20.142Z,102104.53
2022-10-12T11:12:02.708Z,102090.44
2022-10-12T11:14:39.393Z,102100.19
2022-10-12T11:17:18.776Z,102087.06
2022-10-12T11:20:29.129Z,102087.19
2022-10-12T11:23:09.587Z,102084.84
2022-10-12T11:25:48.208Z,102079.44
2022-10-12T11:28:16.662Z,102073.00
2022-10-12T11:30:51.975Z,102069.91
2022-10-12T11:33:27.603Z,102073.75
2022-10-12T11:35:57.469Z,102067.69
2022-10-12T11:38:48.479Z,102057.09
2022-10-12T11:44:30.836Z,102055.41
2022-10-12T11:47:28.151Z,102057.16
2022-10-12T11:50:14.757Z,102043.78
2022-10-12T11:52:49.182Z,102046.09
2022-10-12T11:55:46.999Z,102057.03
2022-10-12T11:58:42.190Z,102043.50
2022-10-12T12:01:37.887Z,102048.09
2022-10-12T12:04:41.573Z,102049.69
2022-10-12T12:07:42.430Z,102039.88
2022-10-12T12:10:27.888Z,102028.50
2022-10-12T12:13:15.297Z,102029.13
2022-10-12T12:15:52.270Z,102023.25
2022-10-12T12:18:29.156Z,102028.97
2022-10-12T12:21:08.343Z,102020.47
2022-10-12T12:23:52.340Z,102017.31
2022-10-12T12:26:22.465Z,102006.94
2022-10-12T12:29:11.309Z,102013.50
2022-10-12T12:31:38.458Z,102009.00
2022-10-12T12:34:13.890Z,102005.19
2022-10-12T12:36:46.893Z,102009.34
2022-10-12T12:39:33.231Z,102000.13
2022-10-12T12:42:06.973Z,102000.44
2022-10-12T12:44:43.532Z,102002.13
2022-10-12T12:47:45.415Z,102002.91
2022-10-12T12:50:39.688Z,102009.00
2022-10-12T12:53:18.712Z,102020.88
2022-10-12T12:56:19.908Z,102017.63
2022-10-12T12:58:57.993Z,102017.59
2022-10-12T13:01:46.825Z,102010.75
2022-10-12T13:04:41.226Z,102012.97
2022-10-12T13:07:29.328Z,102015.41
2022-10-12T13:10:39.520Z,101999.84
2022-10-12T13:13:24.374Z,102000.75
2022-10-12T13:19:36.693Z,101993.75
2022-10-12T13:22:23.292Z,101993.06
2022-10-12T13:24:54.585Z,101994.44
2022-10-12T13:27:33.109Z,101994.78
2022-10-12T13:30:26.956Z,101991.72
2022-10-12T13:33:21.473Z,101988.94
2022-10-12T13:35:55.974Z,101988.84
2022-10-12T13:38:26.975Z,101977.34
2022-10-12T13:41:20.520Z,101976.75
2022-10-12T13:44:04.293Z,101972.81
2022-10-12T13:46:48.299Z,101965.63
2022-10-12T13:49:26.162Z,101976.38
2022-10-12T13:52:32.373Z,101974.72
2022-10-12T13:55:00.887Z,101968.72
2022-10-12T13:57:41.478Z,101971.38
2022-10-12T14:00:16.263Z,101968.09
2022-10-12T14:03:00.391Z,101967.56
2022-10-12T14:05:30.844Z,101975.13
2022-10-12T14:08:06.952Z,101975.84
2022-10-12T14:10:37.898Z,101968.19
2022-10-12T14:13:07.289Z,101968.09
2022-10-12T14:15:37.454Z,101970.41
2022-10-12T14:18:31.565Z,101972.91
2022-10-12T14:21:36.604Z,101979.06
2022-10-12T14:24:10.557Z,101967.34
2022-10-12T14:26:43.161Z,101973.28
2022-10-12T14:29:39.340Z,101973.19
2022-10-12T14:32:12.844Z,101968.34
2022-10-12T14:34:46.399Z,101969.31
2022-10-12T14:37:28.707Z,101966.06
2022-10-12T14:40:00.411Z,101971.19
2022-10-12T14:42:32.201Z,101962.53
2022-10-12T14:44:59.926Z,101965.84
2022-10-12T14:47:41.857Z,101958.66
2022-10-12T14:50:17.185Z,101968.19
2022-10-12T14:52:52.934Z,101957.00
2022-10-12T14:55:30.660Z,101969.13
2022-10-12T14:57:57.673Z,101969.53
2022-10-12T15:00:31.865Z,101954.91
2022-10-12T15:03:04.859Z,101968.88
2022-10-12T15:05:33.426Z,101959.16
2022-10-12T15:08:01.554Z,101962.97
2022-10-12T15:10:29.797Z,101961.94
2022-10-12T15:12:56.674Z,101957.94
2022-10-12T15:15:39.869Z,101953.06
2022-10-12T15:18:07.265Z,101955.78
2022-10-12T15:20:35.771Z,101950.09
2022-10-12T15:23:03.245Z,101956.59
2022-10-12T15:25:46.031Z,101952.53
2022-10-12T15:28:13.088Z,101947.09
2022-10-12T15:31:04.246Z,101953.84
2022-10-12T15:33:27.390Z,101948.09
2022-10-12T15:35:54.458Z,101954.59
2022-10-12T15:38:22.367Z,101950.19
2022-10-12T15:40:51.026Z,101949.88
2022-10-12T15:43:18.065Z,101957.97
2022-10-12T15:45:45.102Z,101947.00
2022-10-12T15:48:12.069Z,101953.69
2022-10-12T15:50:42.973Z,101942.72
2022-10-12T15:53:24.674Z,101941.81
2022-10-12T15:55:53.051Z,101955.78
2022-10-12T15:58:20.377Z,101945.88
2022-10-12T16:00:48.359Z,101951.44
2022-10-12T16:03:24.553Z,101943.13
2022-10-12T16:05:53.016Z,101948.13
2022-10-12T16:08:19.865Z,101952.81
2022-10-12T16:10:47.738Z,101941.47
2022-10-12T16:13:16.021Z,101935.63
2022-10-12T16:15:43.630Z,101943.00
2022-10-12T16:18:15.306Z,101950.41
2022-10-12T16:20:42.789Z,101945.88
2022-10-12T16:23:25.919Z,101949.19
2022-10-12T16:25:53.553Z,101949.16
2022-10-12T16:28:22.075Z,101950.59
2022-10-12T16:30:49.955Z,101943.03
2022-10-12T16:33:17.992Z,101944.66
2022-10-12T16:35:45.235Z,101945.47
2022-10-12T16:38:14.458Z,101958.22
2022-10-12T16:40:42.918Z,101954.41
2022-10-12T16:43:10.145Z,101959.28
2022-10-12T16:45:37.000Z,101953.31
2022-10-12T16:48:04.153Z,101949.25
2022-10-12T16:50:30.966Z,101947.91
2022-10-12T16:52:58.247Z,101946.53
2022-10-12T16:55:25.368Z,101944.34
2022-10-12T16:57:52.316Z,101958.63
2022-10-12T17:00:20.355Z,101946.44
2022-10-12T17:02:47.961Z,101950.16
2022-10-12T17:05:15.094Z,101957.44
2022-10-12T17:07:42.173Z,101949.34
2022-10-12T17:10:09.655Z,101950.63
2022-10-12T17:12:36.523Z,101946.03
2022-10-12T17:15:04.426Z,101953.28
2022-10-12T17:17:31.240Z,101958.88
2022-10-12T17:19:58.180Z,101953.16
2022-10-12T17:22:25.269Z,101945.88
2022-10-12T17:24:52.148Z,101956.59
2022-10-12T17:27:19.247Z,101954.06
2022-10-12T17:29:46.926Z,101951.91
2022-10-12T17:32:13.990Z,101957.84
2022-10-12T17:34:44.426Z,101964.56
2022-10-12T17:37:14.925Z,101962.63
2022-10-12T17:39:45.778Z,101965.81
2022-10-12T17:42:13.377Z,101961.78
2022-10-12T17:44:40.749Z,101959.00
2022-10-12T17:47:07.917Z,101958.22
2022-10-12T17:49:34.892Z,101947.63
2022-10-12T17:52:01.931Z,101946.84
2022-10-12T17:54:28.792Z,101954.16
2022-10-12T17:56:56.180Z,101951.97
2022-10-12T17:59:23.476Z,101952.47
2022-10-12T18:01:51.974Z,101957.03
2022-10-12T18:04:19.691Z,101948.88
2022-10-12T18:06:46.930Z,101951.44
2022-10-12T18:09:14.464Z,101961.78
2022-10-12T18:11:41.777Z,101955.69
2022-10-12T18:14:10.447Z,101957.16
2022-10-12T18:16:37.916Z,101955.56
2022-10-12T18:19:07.021Z,101952.50
2022-10-12T18:21:34.422Z,101953.56
2022-10-12T18:24:04.592Z,101949.69
2022-10-12T18:26:33.301Z,101945.16
2022-10-12T18:29:02.028Z,101935.72
2022-10-12T18:31:29.770Z,101940.69
2022-10-12T18:33:57.859Z,101941.75
2022-10-12T18:36:26.478Z,101942.81
2022-10-12T18:38:54.043Z,101936.66
2022-10-12T18:41:23.171Z,101939.97
2022-10-12T18:43:55.376Z,101934.84
2022-10-12T18:46:22.448Z,101933.22
2022-10-12T18:48:49.608Z,101933.84
2022-10-12T18:51:27.045Z,101931.19
2022-10-12T18:53:55.113Z,101933.47
2022-10-12T18:56:22.653Z,101931.63
2022-10-12T18:58:49.881Z,101934.13
2022-10-12T19:01:20.754Z,101925.03
2022-10-12T19:03:48.657Z,101938.63
2022-10-12T19:06:30.866Z,101935.75
2022-10-12T19:08:58.706Z,101925.06
2022-10-12T19:11:27.369Z,101919.09
2022-10-12T19:14:04.691Z,101926.09
2022-10-12T19:16:32.987Z,101925.06
2022-10-12T19:19:03.937Z,101926.50
2022-10-12T19:21:31.273Z,101917.03
2022-10-12T19:23:58.237Z,101913.53
2022-10-12T19:26:27.548Z,101919.50
2022-10-12T19:28:56.865Z,101923.81
2022-10-12T19:31:30.691Z,101922.78
2022-10-12T19:34:19.193Z,101922.59
2022-10-12T19:36:47.114Z,101930.41
2022-10-12T19:39:19.265Z,101922.78
2022-10-12T19:41:46.897Z,101921.13
2022-10-12T19:44:14.546Z,101921.34
2022-10-12T19:46:42.840Z,101917.44
2022-10-12T19:49:13.797Z,101915.34
2022-10-12T19:51:41.182Z,101914.91
2022-10-12T19:54:11.800Z,101912.84
2022-10-12T19:59:30.425Z,101904.41
2022-10-12T20:01:57.232Z,101911.59
2022-10-12T20:04:24.243Z,101908.28
2022-10-12T20:06:52.005Z,101905.81
2022-10-12T20:09:18.835Z,101912.41
2022-10-12T20:11:45.814Z,101912.81
2022-10-12T20:14:12.665Z,101908.88
2022-10-12T20:16:39.511Z,101908.47
2022-10-12T20:19:07.249Z,101900.22
2022-10-12T20:21:36.472Z,101910.09
2022-10-12T20:24:04.106Z,101905.34
2022-10-12T20:26:31.242Z,101909.44
2022-10-12T20:28:58.105Z,101906.34
2022-10-12T20:31:27.639Z,101910.47
2022-10-12T20:33:55.886Z,101905.72
2022-10-12T20:36:29.901Z,101920.91
2022-10-12T20:39:00.305Z,101901.16
2022-10-12T20:41:27.959Z,101897.06
2022-10-12T20:43:59.933Z,101904.44
2022-10-12T20:46:28.408Z,101897.81
2022-10-12T20:48:59.672Z,101896.38
2022-10-12T20:51:33.979Z,101894.28
2022-10-12T20:54:03.016Z,101891.81
2022-10-12T20:56:32.516Z,101888.53
2022-10-12T20:59:01.271Z,101886.25
2022-10-12T21:01:28.807Z,101884.19
2022-10-12T21:04:21.188Z,101874.28
2022-10-12T21:06:48.301Z,101880.44
2022-10-12T21:09:15.482Z,101870.34
2022-10-12T21:12:07.474Z,101871.75
2022-10-12T21:14:35.437Z,101865.59
2022-10-12T21:17:02.367Z,101866.63
2022-10-12T21:19:29.480Z,101871.34
2022-10-12T21:21:56.395Z,101863.72
2022-10-12T21:24:23.301Z,101861.06
2022-10-12T21:26:51.755Z,101854.47
2022-10-12T21:29:19.375Z,101865.34
2022-10-12T21:31:46.133Z,101862.88
2022-10-12T21:34:13.097Z,101858.56
2022-10-12T21:36:40.299Z,101861.63
2022-10-12T21:39:13.687Z,101862.63
2022-10-12T21:41:41.569Z,101867.53
2022-10-12T21:44:10.127Z,101864.44
2022-10-12T21:46:37.626Z,101860.97
2022-10-12T21:49:08.120Z,101872.66
2022-10-12T21:51:36.688Z,101873.88
2022-10-12T21:54:05.855Z,101868.09
2022-10-12T21:56:35.981Z,101872.59
2022-10-12T21:59:05.256Z,101875.28
2022-10-12T22:01:36.807Z,101869.06
2022-10-12T22:04:12.868Z,101878.53
2022-10-12T22:06:40.701Z,101872.97
2022-10-12T22:09:12.608Z,101887.69
2022-10-12T22:11:39.878Z,101867.56
2022-10-12T22:14:15.002Z,101872.09
2022-10-12T22:16:45.720Z,101871.88
2022-10-12T22:19:18.699Z,101865.75
2022-10-12T22:21:48.297Z,101862.63
2022-10-12T22:24:15.885Z,101868.78
2022-10-12T22:26:43.075Z,101851.06
2022-10-12T22:29:10.518Z,101857.66
2022-10-12T22:31:40.486Z,101857.84
2022-10-12T22:34:08.338Z,101852.72
2022-10-12T22:36:36.208Z,101848.41
2022-10-12T22:39:04.163Z,101842.44
2022-10-12T22:41:31.776Z,101847.16
2022-10-12T22:43:58.651Z,101843.03
2022-10-12T22:46:26.326Z,101841.63
2022-10-12T22:48:54.495Z,101841.00
2022-10-12T22:51:32.181Z,101835.66
2022-10-12T22:54:00.257Z,101841.00
2022-10-12T22:56:27.716Z,101837.88
2022-10-12T22:58:57.142Z,101835.41
2022-10-12T23:01:25.505Z,101838.91
2022-10-12T23:03:54.025Z,101835.59
2022-10-12T23:06:21.649Z,101832.13
2022-10-12T23:08:48.604Z,101819.56
2022-10-12T23:11:22.906Z,101825.34
2022-10-12T23:13:50.353Z,101824.09
2022-10-12T23:16:29.715Z,101818.94
2022-10-12T23:19:03.295Z,101818.94
2022-10-12T23:21:33.050Z,101826.31
2022-10-12T23:24:01.695Z,101835.31
2022-10-12T23:26:30.156Z,101831.00
2022-10-12T23:28:57.195Z,101819.09
2022-10-12T23:31:29.992Z,101817.44
2022-10-12T23:34:04.292Z,101819.91
2022-10-12T23:36:31.576Z,101821.50
2022-10-12T23:39:03.363Z,101819.66
2022-10-12T23:41:30.894Z,101818.84
2022-10-12T23:43:58.117Z,101814.03
2022-10-12T23:46:25.428Z,101807.50
2022-10-12T23:48:53.934Z,101827.22
2022-10-12T23:51:20.947Z,101822.66
2022-10-12T23:53:48.334Z,101832.13
2022-10-12T23:56:15.219Z,101826.97
2022-10-12T23:58:42.147Z,101821.22
